createdAt,value
2022-10-02T00:02:35.302Z,100.00
2022-10-02T00:17:40.502Z,100.00
2022-10-02T00:32:47.728Z,100.00
2022-10-02T00:47:52.170Z,100.00
2022-10-02T01:03:05.777Z,100.00
2022-10-02T01:18:07.572Z,100.00
2022-10-02T01:33:09.613Z,100.00
2022-10-02T01:48:13.866Z,98.83
2022-10-02T02:03:24.402Z,89.42
2022-10-02T02:18:33.055Z,94.59
2022-10-02T02:33:42.008Z,88.64
2022-10-02T02:48:45.941Z,90.11
2022-10-02T03:03:47.815Z,100.00
2022-10-02T03:19:02.325Z,98.16
2022-10-02T03:34:04.353Z,96.70
2022-10-02T03:49:05.843Z,92.55
2022-10-02T04:04:14.204Z,92.35
2022-10-02T04:19:39.293Z,91.91
2022-10-02T04:34:41.377Z,94.35
2022-10-02T04:49:45.898Z,89.01
2022-10-02T05:04:50.746Z,92.46
2022-10-02T05:19:57.735Z,80.61
2022-10-02T05:35:17.881Z,76.61
2022-10-02T05:50:21.547Z,73.69
2022-10-02T06:05:22.966Z,73.00
2022-10-02T06:20:29.055Z,68.00
2022-10-02T06:35:43.099Z,65.09
2022-10-02T06:50:47.742Z,58.60
2022-10-02T07:05:57.977Z,55.36
2022-10-02T07:21:05.303Z,53.34
2022-10-02T07:36:12.119Z,49.71
2022-10-02T07:51:41.411Z,48.93
2022-10-02T08:06:47.073Z,46.41
2022-10-02T08:21:50.259Z,48.97
2022-10-02T08:37:08.590Z,49.98
2022-10-02T08:52:28.641Z,48.23
2022-10-02T09:07:39.637Z,46.79
2022-10-02T09:22:56.487Z,50.28
2022-10-02T09:38:11.002Z,47.15
2022-10-02T09:53:12.435Z,50.73
2022-10-02T10:08:16.773Z,51.80
2022-10-02T10:23:36.914Z,49.60
2022-10-02T10:38:49.607Z,45.38
2022-10-02T10:54:08.578Z,46.18
2022-10-02T11:09:36.701Z,44.82
2022-10-02T11:24:38.117Z,45.13
2022-10-02T11:39:48.412Z,43.23
2022-10-02T11:54:56.345Z,45.45
2022-10-02T12:09:57.759Z,45.71
2022-10-02T12:25:36.873Z,45.53
2022-10-02T12:40:43.781Z,48.50
2022-10-02T12:55:48.161Z,47.96
2022-10-02T13:11:08.010Z,49.09
2022-10-02T13:26:23.419Z,47.66
2022-10-02T13:41:32.834Z,50.10
2022-10-02T13:56:43.983Z,47.09
2022-10-02T14:11:56.367Z,46.78
2022-10-02T14:26:57.816Z,50.74
2022-10-02T14:42:14.600Z,47.56
2022-10-02T14:57:19.653Z,50.87
2022-10-02T15:12:21.216Z,52.51
2022-10-02T15:27:23.064Z,52.50
2022-10-02T15:42:49.405Z,53.23
2022-10-02T15:57:57.598Z,54.11
2022-10-02T16:13:02.097Z,54.73
2022-10-02T16:28:15.553Z,53.89
2022-10-02T16:43:19.802Z,54.54
2022-10-02T16:58:28.403Z,57.02
2022-10-02T17:13:34.284Z,56.31
2022-10-02T17:28:36.943Z,57.02
2022-10-02T17:44:04.912Z,55.72
2022-10-02T17:59:12.229Z,53.39
2022-10-02T18:14:17.123Z,51.78
2022-10-02T18:29:18.568Z,53.73
2022-10-02T18:44:26.205Z,56.33
2022-10-02T18:59:30.443Z,57.12
2022-10-02T19:14:36.839Z,57.14
2022-10-02T19:29:58.813Z,54.21
2022-10-02T19:45:03.049Z,53.30
2022-10-02T20:00:07.892Z,51.27
2022-10-02T20:15:41.410Z,51.85
2022-10-02T20:30:48.750Z,49.63
2022-10-02T20:46:09.023Z,49.75
2022-10-02T21:01:14.920Z,49.07
2022-10-02T21:16:38.050Z,50.93
2022-10-02T21:31:39.764Z,55.04
2022-10-02T21:46:56.214Z,62.83
2022-10-02T22:16:13.932Z,73.93
2022-10-02T22:31:28.270Z,82.22
2022-10-02T22:46:41.308Z,84.01
2022-10-02T23:01:53.767Z,84.86
2022-10-02T23:17:06.016Z,85.53
2022-10-02T23:32:13.534Z,89.03
2022-10-02T23:47:29.968Z,95.72
